Spout Spring, Virginia
Current Conditions -  °F | °C
As of 8:15 AM on Thursday 18 Dec 2014 (Local Time) from K0V4 Reporting Station
Clear Clear  
Wind Chill: 34°   Ceiling: Unl
Heat Index: 37°   Visibility: 10mi
Dew Point: 28°   Wind: 5mph
Humidity: 70%   Direction: 290°WNW
Pressure: 30.17"   Gusts: NA
Location:  37.35°N, 78.91°W
Report Text: K0V4 181315Z AUTO 29004KT 10SM CLR 03/M02 A3017 RMK AO1 T00301020
Loading
Personal Weather Stations






























Interactive Weather Map New forecast layout! Learn more

10-Day Weather Forecast

Advertisements
Track Severe Weather on mobile